sensor_id;sensor_type;location;lat;lon;timestamp;P1;durP1;ratioP1;P2;durP2;ratioP2
20855;SDS011;63058;49.424;8.420;2024-01-07T00:01:49;10.50;;;8.18;;
20855;SDS011;63058;49.424;8.420;2024-01-07T00:04:15;11.10;;;8.30;;
20855;SDS011;63058;49.424;8.420;2024-01-07T00:06:41;11.25;;;8.18;;
20855;SDS011;63058;49.424;8.420;2024-01-07T00:09:07;11.75;;;7.90;;
20855;SDS011;63058;49.424;8.420;2024-01-07T00:11:33;10.93;;;7.93;;
20855;SDS011;63058;49.424;8.420;2024-01-07T00:13:58;15.18;;;11.20;;
20855;SDS011;63058;49.424;8.420;2024-01-07T00:16:24;11.00;;;8.25;;
20855;SDS011;63058;49.424;8.420;2024-01-07T00:18:49;12.32;;;9.43;;
20855;SDS011;63058;49.424;8.420;2024-01-07T00:21:15;11.57;;;8.65;;
20855;SDS011;63058;49.424;8.420;2024-01-07T00:23:40;12.43;;;9.27;;
20855;SDS011;63058;49.424;8.420;2024-01-07T00:26:06;13.13;;;9.38;;
20855;SDS011;63058;49.424;8.420;2024-01-07T00:28:32;12.95;;;9.48;;
20855;SDS011;63058;49.424;8.420;2024-01-07T00:30:57;13.52;;;9.68;;
20855;SDS011;63058;49.424;8.420;2024-01-07T00:33:23;14.27;;;9.30;;
20855;SDS011;63058;49.424;8.420;2024-01-07T00:35:48;14.18;;;10.07;;
20855;SDS011;63058;49.424;8.420;2024-01-07T00:38:14;14.30;;;9.88;;
20855;SDS011;63058;49.424;8.420;2024-01-07T00:40:39;11.82;;;9.05;;
20855;SDS011;63058;49.424;8.420;2024-01-07T00:43:05;12.15;;;8.57;;
20855;SDS011;63058;49.424;8.420;2024-01-07T00:45:30;10.68;;;8.02;;
20855;SDS011;63058;49.424;8.420;2024-01-07T00:47:56;11.90;;;8.68;;
20855;SDS011;63058;49.424;8.420;2024-01-07T00:50:21;10.45;;;8.00;;
20855;SDS011;63058;49.424;8.420;2024-01-07T00:52:47;14.95;;;10.75;;
20855;SDS011;63058;49.424;8.420;2024-01-07T00:55:13;14.60;;;10.07;;
20855;SDS011;63058;49.424;8.420;2024-01-07T00:57:38;14.10;;;10.27;;
20855;SDS011;63058;49.424;8.420;2024-01-07T01:00:04;13.98;;;9.32;;
20855;SDS011;63058;49.424;8.420;2024-01-07T01:02:30;13.13;;;9.45;;
20855;SDS011;63058;49.424;8.420;2024-01-07T01:04:56;11.93;;;8.80;;
20855;SDS011;63058;49.424;8.420;2024-01-07T01:07:22;13.18;;;9.57;;
20855;SDS011;63058;49.424;8.420;2024-01-07T01:09:47;13.05;;;8.75;;
20855;SDS011;63058;49.424;8.420;2024-01-07T01:12:13;13.07;;;8.93;;
20855;SDS011;63058;49.424;8.420;2024-01-07T01:14:38;12.73;;;9.35;;
20855;SDS011;63058;49.424;8.420;2024-01-07T01:17:04;13.02;;;9.07;;
20855;SDS011;63058;49.424;8.420;2024-01-07T01:19:29;12.77;;;8.63;;
20855;SDS011;63058;49.424;8.420;2024-01-07T01:21:55;11.80;;;8.48;;
20855;SDS011;63058;49.424;8.420;2024-01-07T01:24:20;17.13;;;10.20;;
20855;SDS011;63058;49.424;8.420;2024-01-07T01:26:46;13.90;;;9.07;;
20855;SDS011;63058;49.424;8.420;2024-01-07T01:29:11;15.17;;;9.10;;
20855;SDS011;63058;49.424;8.420;2024-01-07T01:31:37;14.00;;;8.60;;
20855;SDS011;63058;49.424;8.420;2024-01-07T01:34:02;11.47;;;8.30;;
20855;SDS011;63058;49.424;8.420;2024-01-07T01:36:30;11.97;;;7.67;;
20855;SDS011;63058;49.424;8.420;2024-01-07T01:38:56;11.68;;;7.88;;
20855;SDS011;63058;49.424;8.420;2024-01-07T01:41:22;12.50;;;8.63;;
20855;SDS011;63058;49.424;8.420;2024-01-07T01:43:47;9.93;;;7.27;;
20855;SDS011;63058;49.424;8.420;2024-01-07T01:46:13;11.02;;;8.25;;
20855;SDS011;63058;49.424;8.420;2024-01-07T01:48:39;10.17;;;7.07;;
20855;SDS011;63058;49.424;8.420;2024-01-07T01:51:06;10.37;;;7.50;;
20855;SDS011;63058;49.424;8.420;2024-01-07T01:53:32;9.93;;;6.88;;
20855;SDS011;63058;49.424;8.420;2024-01-07T01:55:58;10.00;;;7.30;;
20855;SDS011;63058;49.424;8.420;2024-01-07T01:58:29;9.77;;;6.90;;
20855;SDS011;63058;49.424;8.420;2024-01-07T02:00:55;9.63;;;6.93;;
20855;SDS011;63058;49.424;8.420;2024-01-07T02:03:21;9.52;;;6.95;;
20855;SDS011;63058;49.424;8.420;2024-01-07T02:05:48;10.52;;;6.97;;
20855;SDS011;63058;49.424;8.420;2024-01-07T02:08:14;10.10;;;6.30;;
20855;SDS011;63058;49.424;8.420;2024-01-07T02:10:39;10.65;;;6.93;;
20855;SDS011;63058;49.424;8.420;2024-01-07T02:13:05;9.77;;;6.38;;
20855;SDS011;63058;49.424;8.420;2024-01-07T02:15:31;7.95;;;5.57;;
20855;SDS011;63058;49.424;8.420;2024-01-07T02:17:56;8.05;;;5.60;;
20855;SDS011;63058;49.424;8.420;2024-01-07T02:20:23;8.38;;;5.50;;
20855;SDS011;63058;49.424;8.420;2024-01-07T02:22:48;9.20;;;6.30;;
20855;SDS011;63058;49.424;8.420;2024-01-07T02:25:14;8.17;;;6.40;;
20855;SDS011;63058;49.424;8.420;2024-01-07T02:27:39;8.68;;;5.93;;
20855;SDS011;63058;49.424;8.420;2024-01-07T02:30:05;8.98;;;6.20;;
20855;SDS011;63058;49.424;8.420;2024-01-07T02:32:31;9.52;;;6.75;;
20855;SDS011;63058;49.424;8.420;2024-01-07T02:34:59;7.88;;;6.00;;
20855;SDS011;63058;49.424;8.420;2024-01-07T02:37:25;9.00;;;6.38;;
20855;SDS011;63058;49.424;8.420;2024-01-07T02:39:50;7.72;;;5.80;;
20855;SDS011;63058;49.424;8.420;2024-01-07T02:42:16;10.55;;;7.18;;
20855;SDS011;63058;49.424;8.420;2024-01-07T02:44:42;9.55;;;7.18;;
20855;SDS011;63058;49.424;8.420;2024-01-07T02:47:07;7.40;;;5.78;;
20855;SDS011;63058;49.424;8.420;2024-01-07T02:49:33;8.43;;;6.23;;
20855;SDS011;63058;49.424;8.420;2024-01-07T02:51:59;8.60;;;6.05;;
20855;SDS011;63058;49.424;8.420;2024-01-07T02:54:24;7.57;;;5.43;;
20855;SDS011;63058;49.424;8.420;2024-01-07T02:56:50;9.13;;;6.55;;
20855;SDS011;63058;49.424;8.420;2024-01-07T02:59:15;7.65;;;5.78;;
20855;SDS011;63058;49.424;8.420;2024-01-07T03:01:41;6.82;;;5.35;;
20855;SDS011;63058;49.424;8.420;2024-01-07T03:04:10;8.77;;;6.68;;
20855;SDS011;63058;49.424;8.420;2024-01-07T03:06:37;7.55;;;5.72;;
20855;SDS011;63058;49.424;8.420;2024-01-07T03:09:03;6.97;;;5.30;;
20855;SDS011;63058;49.424;8.420;2024-01-07T03:11:29;8.30;;;6.00;;
20855;SDS011;63058;49.424;8.420;2024-01-07T03:13:55;8.55;;;6.15;;
20855;SDS011;63058;49.424;8.420;2024-01-07T03:16:24;6.93;;;5.60;;
20855;SDS011;63058;49.424;8.420;2024-01-07T03:18:50;6.70;;;5.30;;
20855;SDS011;63058;49.424;8.420;2024-01-07T03:21:20;7.73;;;5.50;;
20855;SDS011;63058;49.424;8.420;2024-01-07T03:23:46;6.80;;;5.33;;
20855;SDS011;63058;49.424;8.420;2024-01-07T03:26:12;6.37;;;4.57;;
20855;SDS011;63058;49.424;8.420;2024-01-07T03:28:38;8.52;;;6.20;;
20855;SDS011;63058;49.424;8.420;2024-01-07T03:31:14;10.13;;;6.27;;
20855;SDS011;63058;49.424;8.420;2024-01-07T03:33:41;7.57;;;5.87;;
20855;SDS011;63058;49.424;8.420;2024-01-07T03:36:08;6.73;;;5.30;;
20855;SDS011;63058;49.424;8.420;2024-01-07T03:38:37;7.30;;;5.67;;
20855;SDS011;63058;49.424;8.420;2024-01-07T03:41:04;8.23;;;5.93;;
20855;SDS011;63058;49.424;8.420;2024-01-07T03:43:30;8.90;;;5.68;;
20855;SDS011;63058;49.424;8.420;2024-01-07T03:45:55;7.38;;;6.07;;
20855;SDS011;63058;49.424;8.420;2024-01-07T03:48:21;9.43;;;6.60;;
20855;SDS011;63058;49.424;8.420;2024-01-07T03:50:46;10.23;;;7.45;;
20855;SDS011;63058;49.424;8.420;2024-01-07T03:53:12;7.00;;;5.50;;
20855;SDS011;63058;49.424;8.420;2024-01-07T03:55:38;9.32;;;6.38;;
20855;SDS011;63058;49.424;8.420;2024-01-07T03:58:04;8.70;;;6.63;;
20855;SDS011;63058;49.424;8.420;2024-01-07T04:00:33;8.77;;;6.53;;
20855;SDS011;63058;49.424;8.420;2024-01-07T04:02:59;8.40;;;6.50;;
20855;SDS011;63058;49.424;8.420;2024-01-07T04:05:25;8.23;;;6.23;;
20855;SDS011;63058;49.424;8.420;2024-01-07T04:07:50;7.93;;;6.17;;
20855;SDS011;63058;49.424;8.420;2024-01-07T04:10:16;7.43;;;6.00;;
20855;SDS011;63058;49.424;8.420;2024-01-07T04:12:42;8.40;;;6.20;;
20855;SDS011;63058;49.424;8.420;2024-01-07T04:15:08;7.60;;;5.97;;
20855;SDS011;63058;49.424;8.420;2024-01-07T04:17:34;9.30;;;6.93;;
20855;SDS011;63058;49.424;8.420;2024-01-07T04:20:00;7.60;;;6.13;;
20855;SDS011;63058;49.424;8.420;2024-01-07T04:22:25;9.53;;;7.67;;
20855;SDS011;63058;49.424;8.420;2024-01-07T04:24:51;8.50;;;6.40;;
20855;SDS011;63058;49.424;8.420;2024-01-07T04:27:17;8.77;;;6.90;;
20855;SDS011;63058;49.424;8.420;2024-01-07T04:29:42;8.75;;;6.60;;
20855;SDS011;63058;49.424;8.420;2024-01-07T04:32:08;8.57;;;6.65;;
20855;SDS011;63058;49.424;8.420;2024-01-07T04:34:33;7.22;;;6.03;;
20855;SDS011;63058;49.424;8.420;2024-01-07T04:36:59;9.73;;;7.15;;
20855;SDS011;63058;49.424;8.420;2024-01-07T04:39:24;9.07;;;6.53;;
20855;SDS011;63058;49.424;8.420;2024-01-07T04:41:50;10.10;;;8.03;;
20855;SDS011;63058;49.424;8.420;2024-01-07T04:44:16;9.80;;;7.00;;
20855;SDS011;63058;49.424;8.420;2024-01-07T04:46:42;9.48;;;7.15;;
20855;SDS011;63058;49.424;8.420;2024-01-07T04:49:07;9.73;;;7.40;;
20855;SDS011;63058;49.424;8.420;2024-01-07T04:51:33;9.65;;;6.10;;
20855;SDS011;63058;49.424;8.420;2024-01-07T04:53:59;9.27;;;6.75;;
20855;SDS011;63058;49.424;8.420;2024-01-07T04:56:24;7.63;;;5.77;;
20855;SDS011;63058;49.424;8.420;2024-01-07T04:58:50;7.38;;;5.85;;
20855;SDS011;63058;49.424;8.420;2024-01-07T05:01:15;9.68;;;6.78;;
20855;SDS011;63058;49.424;8.420;2024-01-07T05:03:41;7.72;;;6.38;;
20855;SDS011;63058;49.424;8.420;2024-01-07T05:06:10;8.23;;;6.50;;
20855;SDS011;63058;49.424;8.420;2024-01-07T05:08:36;8.63;;;6.68;;
20855;SDS011;63058;49.424;8.420;2024-01-07T05:11:02;8.48;;;6.18;;
20855;SDS011;63058;49.424;8.420;2024-01-07T05:13:28;7.27;;;5.83;;
20855;SDS011;63058;49.424;8.420;2024-01-07T05:15:54;7.25;;;5.97;;
20855;SDS011;63058;49.424;8.420;2024-01-07T05:18:21;9.00;;;6.43;;
20855;SDS011;63058;49.424;8.420;2024-01-07T05:20:47;8.55;;;6.35;;
20855;SDS011;63058;49.424;8.420;2024-01-07T05:23:13;7.63;;;6.05;;
20855;SDS011;63058;49.424;8.420;2024-01-07T05:25:38;10.10;;;7.37;;
20855;SDS011;63058;49.424;8.420;2024-01-07T05:28:04;7.43;;;5.68;;
20855;SDS011;63058;49.424;8.420;2024-01-07T05:30:30;9.18;;;6.45;;
20855;SDS011;63058;49.424;8.420;2024-01-07T05:32:55;8.15;;;6.15;;
20855;SDS011;63058;49.424;8.420;2024-01-07T05:35:21;8.63;;;6.40;;
20855;SDS011;63058;49.424;8.420;2024-01-07T05:37:46;7.57;;;6.00;;
20855;SDS011;63058;49.424;8.420;2024-01-07T05:40:12;10.40;;;7.50;;
20855;SDS011;63058;49.424;8.420;2024-01-07T05:42:38;8.73;;;6.05;;
20855;SDS011;63058;49.424;8.420;2024-01-07T05:45:03;9.18;;;6.47;;
20855;SDS011;63058;49.424;8.420;2024-01-07T05:47:29;9.10;;;6.82;;
20855;SDS011;63058;49.424;8.420;2024-01-07T05:49:55;7.83;;;6.13;;
20855;SDS011;63058;49.424;8.420;2024-01-07T05:52:20;7.70;;;5.87;;
20855;SDS011;63058;49.424;8.420;2024-01-07T05:54:46;9.63;;;5.85;;
20855;SDS011;63058;49.424;8.420;2024-01-07T05:57:12;8.75;;;6.00;;
20855;SDS011;63058;49.424;8.420;2024-01-07T05:59:37;8.57;;;6.25;;
20855;SDS011;63058;49.424;8.420;2024-01-07T06:02:03;8.30;;;5.80;;
20855;SDS011;63058;49.424;8.420;2024-01-07T06:04:28;13.45;;;8.85;;
20855;SDS011;63058;49.424;8.420;2024-01-07T06:06:57;10.68;;;6.93;;
20855;SDS011;63058;49.424;8.420;2024-01-07T06:09:23;13.73;;;8.38;;
20855;SDS011;63058;49.424;8.420;2024-01-07T06:11:49;13.23;;;8.32;;
20855;SDS011;63058;49.424;8.420;2024-01-07T06:14:15;12.30;;;7.55;;
20855;SDS011;63058;49.424;8.420;2024-01-07T06:16:41;9.90;;;6.20;;
20855;SDS011;63058;49.424;8.420;2024-01-07T06:19:07;10.27;;;6.83;;
20855;SDS011;63058;49.424;8.420;2024-01-07T06:21:33;11.15;;;7.10;;
20855;SDS011;63058;49.424;8.420;2024-01-07T06:23:58;11.43;;;7.53;;
20855;SDS011;63058;49.424;8.420;2024-01-07T06:26:24;10.93;;;7.57;;
20855;SDS011;63058;49.424;8.420;2024-01-07T06:28:49;9.27;;;6.57;;
20855;SDS011;63058;49.424;8.420;2024-01-07T06:31:15;11.13;;;7.60;;
20855;SDS011;63058;49.424;8.420;2024-01-07T06:33:41;11.47;;;7.57;;
20855;SDS011;63058;49.424;8.420;2024-01-07T06:36:06;14.27;;;9.25;;
20855;SDS011;63058;49.424;8.420;2024-01-07T06:38:32;13.52;;;8.75;;
20855;SDS011;63058;49.424;8.420;2024-01-07T06:40:58;15.57;;;9.67;;
20855;SDS011;63058;49.424;8.420;2024-01-07T06:43:29;14.95;;;9.88;;
20855;SDS011;63058;49.424;8.420;2024-01-07T06:45:55;16.50;;;9.88;;
20855;SDS011;63058;49.424;8.420;2024-01-07T06:48:21;12.27;;;8.43;;
20855;SDS011;63058;49.424;8.420;2024-01-07T06:50:46;14.60;;;10.03;;
20855;SDS011;63058;49.424;8.420;2024-01-07T06:53:12;15.80;;;11.13;;
20855;SDS011;63058;49.424;8.420;2024-01-07T06:55:37;13.75;;;9.43;;
20855;SDS011;63058;49.424;8.420;2024-01-07T06:58:03;11.40;;;8.40;;
20855;SDS011;63058;49.424;8.420;2024-01-07T07:00:29;14.50;;;10.48;;
20855;SDS011;63058;49.424;8.420;2024-01-07T07:02:54;16.48;;;10.43;;
20855;SDS011;63058;49.424;8.420;2024-01-07T07:05:20;16.92;;;10.30;;
20855;SDS011;63058;49.424;8.420;2024-01-07T07:07:45;12.80;;;8.93;;
20855;SDS011;63058;49.424;8.420;2024-01-07T07:10:11;12.70;;;8.55;;
20855;SDS011;63058;49.424;8.420;2024-01-07T07:12:36;13.13;;;8.35;;
20855;SDS011;63058;49.424;8.420;2024-01-07T07:15:02;12.18;;;8.25;;
20855;SDS011;63058;49.424;8.420;2024-01-07T07:17:29;13.95;;;9.68;;
20855;SDS011;63058;49.424;8.420;2024-01-07T07:19:55;15.25;;;10.85;;
20855;SDS011;63058;49.424;8.420;2024-01-07T07:22:20;12.95;;;9.82;;
20855;SDS011;63058;49.424;8.420;2024-01-07T07:24:46;12.73;;;9.13;;
20855;SDS011;63058;49.424;8.420;2024-01-07T07:27:11;15.93;;;11.07;;
20855;SDS011;63058;49.424;8.420;2024-01-07T07:29:37;14.20;;;10.35;;
20855;SDS011;63058;49.424;8.420;2024-01-07T07:32:02;16.90;;;11.57;;
20855;SDS011;63058;49.424;8.420;2024-01-07T07:34:28;17.23;;;11.70;;
20855;SDS011;63058;49.424;8.420;2024-01-07T07:36:54;16.23;;;10.93;;
20855;SDS011;63058;49.424;8.420;2024-01-07T07:39:20;16.00;;;11.30;;
20855;SDS011;63058;49.424;8.420;2024-01-07T07:41:46;15.53;;;11.03;;
20855;SDS011;63058;49.424;8.420;2024-01-07T07:44:13;14.75;;;11.02;;
20855;SDS011;63058;49.424;8.420;2024-01-07T07:46:38;12.77;;;9.30;;
20855;SDS011;63058;49.424;8.420;2024-01-07T07:49:04;13.50;;;10.13;;
20855;SDS011;63058;49.424;8.420;2024-01-07T07:51:29;13.32;;;10.27;;
20855;SDS011;63058;49.424;8.420;2024-01-07T07:53:56;16.27;;;10.98;;
20855;SDS011;63058;49.424;8.420;2024-01-07T07:56:22;15.07;;;10.65;;
20855;SDS011;63058;49.424;8.420;2024-01-07T07:58:47;14.05;;;10.73;;
20855;SDS011;63058;49.424;8.420;2024-01-07T08:01:13;15.75;;;11.90;;
20855;SDS011;63058;49.424;8.420;2024-01-07T08:03:39;15.05;;;10.15;;
20855;SDS011;63058;49.424;8.420;2024-01-07T08:06:04;15.63;;;10.45;;
20855;SDS011;63058;49.424;8.420;2024-01-07T08:08:30;14.88;;;10.18;;
20855;SDS011;63058;49.424;8.420;2024-01-07T08:10:57;17.77;;;12.18;;
20855;SDS011;63058;49.424;8.420;2024-01-07T08:13:22;15.15;;;11.45;;
20855;SDS011;63058;49.424;8.420;2024-01-07T08:15:48;13.18;;;9.40;;
20855;SDS011;63058;49.424;8.420;2024-01-07T08:18:13;14.68;;;11.27;;
20855;SDS011;63058;49.424;8.420;2024-01-07T08:20:39;15.05;;;11.00;;
20855;SDS011;63058;49.424;8.420;2024-01-07T08:23:05;15.40;;;11.05;;
20855;SDS011;63058;49.424;8.420;2024-01-07T08:25:31;14.82;;;11.75;;
20855;SDS011;63058;49.424;8.420;2024-01-07T08:27:57;15.93;;;11.93;;
20855;SDS011;63058;49.424;8.420;2024-01-07T08:30:22;18.63;;;12.85;;
20855;SDS011;63058;49.424;8.420;2024-01-07T08:32:48;17.85;;;13.32;;
20855;SDS011;63058;49.424;8.420;2024-01-07T08:35:14;18.17;;;12.43;;
20855;SDS011;63058;49.424;8.420;2024-01-07T08:37:39;18.23;;;12.23;;
20855;SDS011;63058;49.424;8.420;2024-01-07T08:40:05;17.17;;;12.35;;
20855;SDS011;63058;49.424;8.420;2024-01-07T08:42:34;14.85;;;11.35;;
20855;SDS011;63058;49.424;8.420;2024-01-07T08:45:00;19.88;;;13.73;;
20855;SDS011;63058;49.424;8.420;2024-01-07T08:47:26;17.67;;;12.95;;
20855;SDS011;63058;49.424;8.420;2024-01-07T08:49:51;19.13;;;14.13;;
20855;SDS011;63058;49.424;8.420;2024-01-07T08:52:18;17.27;;;12.73;;
20855;SDS011;63058;49.424;8.420;2024-01-07T08:54:44;14.77;;;11.88;;
20855;SDS011;63058;49.424;8.420;2024-01-07T08:57:10;16.15;;;11.82;;
20855;SDS011;63058;49.424;8.420;2024-01-07T08:59:35;16.65;;;11.93;;
20855;SDS011;63058;49.424;8.420;2024-01-07T09:02:01;15.93;;;11.90;;
20855;SDS011;63058;49.424;8.420;2024-01-07T09:04:27;14.70;;;10.43;;
20855;SDS011;63058;49.424;8.420;2024-01-07T09:06:53;13.88;;;10.30;;
20855;SDS011;63058;49.424;8.420;2024-01-07T09:09:18;14.20;;;10.90;;
20855;SDS011;63058;49.424;8.420;2024-01-07T09:11:44;15.85;;;10.45;;
20855;SDS011;63058;49.424;8.420;2024-01-07T09:14:10;16.65;;;11.50;;
20855;SDS011;63058;49.424;8.420;2024-01-07T09:16:36;15.77;;;11.32;;
20855;SDS011;63058;49.424;8.420;2024-01-07T09:19:01;14.95;;;11.65;;
20855;SDS011;63058;49.424;8.420;2024-01-07T09:21:27;13.07;;;10.25;;
20855;SDS011;63058;49.424;8.420;2024-01-07T09:23:53;14.45;;;11.63;;
20855;SDS011;63058;49.424;8.420;2024-01-07T09:26:18;14.65;;;10.55;;
20855;SDS011;63058;49.424;8.420;2024-01-07T09:28:44;14.80;;;10.68;;
20855;SDS011;63058;49.424;8.420;2024-01-07T09:31:09;18.77;;;13.07;;
20855;SDS011;63058;49.424;8.420;2024-01-07T09:33:35;16.70;;;11.88;;
20855;SDS011;63058;49.424;8.420;2024-01-07T09:36:00;15.60;;;11.02;;
20855;SDS011;63058;49.424;8.420;2024-01-07T09:38:26;14.30;;;11.15;;
20855;SDS011;63058;49.424;8.420;2024-01-07T09:40:52;13.73;;;11.00;;
20855;SDS011;63058;49.424;8.420;2024-01-07T09:43:19;15.63;;;11.55;;
20855;SDS011;63058;49.424;8.420;2024-01-07T09:45:45;17.55;;;12.85;;
20855;SDS011;63058;49.424;8.420;2024-01-07T09:48:13;15.25;;;11.50;;
20855;SDS011;63058;49.424;8.420;2024-01-07T09:50:39;13.80;;;10.57;;
20855;SDS011;63058;49.424;8.420;2024-01-07T09:53:05;15.85;;;12.27;;
20855;SDS011;63058;49.424;8.420;2024-01-07T09:56:01;16.58;;;12.02;;
20855;SDS011;63058;49.424;8.420;2024-01-07T09:58:25;14.85;;;10.82;;
20855;SDS011;63058;49.424;8.420;2024-01-07T10:00:51;13.30;;;9.75;;
20855;SDS011;63058;49.424;8.420;2024-01-07T10:03:17;14.40;;;10.70;;
20855;SDS011;63058;49.424;8.420;2024-01-07T10:08:10;14.77;;;10.77;;
20855;SDS011;63058;49.424;8.420;2024-01-07T10:10:36;16.55;;;11.38;;
20855;SDS011;63058;49.424;8.420;2024-01-07T10:13:02;16.25;;;11.75;;
20855;SDS011;63058;49.424;8.420;2024-01-07T10:15:28;12.02;;;9.52;;
20855;SDS011;63058;49.424;8.420;2024-01-07T10:18:02;13.63;;;9.75;;
20855;SDS011;63058;49.424;8.420;2024-01-07T10:20:32;14.70;;;10.48;;
20855;SDS011;63058;49.424;8.420;2024-01-07T10:23:02;12.75;;;9.85;;
20855;SDS011;63058;49.424;8.420;2024-01-07T10:25:28;12.98;;;9.52;;
20855;SDS011;63058;49.424;8.420;2024-01-07T10:28:01;14.00;;;9.57;;
20855;SDS011;63058;49.424;8.420;2024-01-07T10:30:30;13.57;;;10.35;;
20855;SDS011;63058;49.424;8.420;2024-01-07T10:32:59;13.70;;;9.98;;
20855;SDS011;63058;49.424;8.420;2024-01-07T10:35:35;14.00;;;10.05;;
20855;SDS011;63058;49.424;8.420;2024-01-07T10:38:02;12.05;;;9.32;;
20855;SDS011;63058;49.424;8.420;2024-01-07T10:40:30;15.18;;;10.10;;
20855;SDS011;63058;49.424;8.420;2024-01-07T10:42:56;14.43;;;10.50;;
20855;SDS011;63058;49.424;8.420;2024-01-07T10:45:23;13.52;;;10.00;;
20855;SDS011;63058;49.424;8.420;2024-01-07T10:47:49;13.15;;;10.13;;
20855;SDS011;63058;49.424;8.420;2024-01-07T10:50:16;11.13;;;9.20;;
20855;SDS011;63058;49.424;8.420;2024-01-07T10:52:42;12.48;;;8.90;;
20855;SDS011;63058;49.424;8.420;2024-01-07T10:55:12;12.07;;;9.48;;
20855;SDS011;63058;49.424;8.420;2024-01-07T10:57:43;11.85;;;8.40;;
20855;SDS011;63058;49.424;8.420;2024-01-07T11:00:13;12.98;;;9.10;;
20855;SDS011;63058;49.424;8.420;2024-01-07T11:03:04;15.05;;;10.18;;
20855;SDS011;63058;49.424;8.420;2024-01-07T11:05:43;12.50;;;9.88;;
20855;SDS011;63058;49.424;8.420;2024-01-07T11:08:23;14.48;;;10.00;;
20855;SDS011;63058;49.424;8.420;2024-01-07T11:10:55;14.68;;;10.85;;
20855;SDS011;63058;49.424;8.420;2024-01-07T11:13:32;11.57;;;8.82;;
20855;SDS011;63058;49.424;8.420;2024-01-07T11:16:00;10.40;;;7.88;;
20855;SDS011;63058;49.424;8.420;2024-01-07T11:18:37;10.38;;;7.70;;
20855;SDS011;63058;49.424;8.420;2024-01-07T11:21:04;10.95;;;8.45;;
20855;SDS011;63058;49.424;8.420;2024-01-07T11:23:34;11.55;;;8.90;;
20855;SDS011;63058;49.424;8.420;2024-01-07T11:26:05;10.93;;;8.93;;
20855;SDS011;63058;49.424;8.420;2024-01-07T11:31:10;9.52;;;7.68;;
20855;SDS011;63058;49.424;8.420;2024-01-07T11:33:36;8.90;;;7.57;;
20855;SDS011;63058;49.424;8.420;2024-01-07T11:36:02;10.60;;;8.40;;
20855;SDS011;63058;49.424;8.420;2024-01-07T11:38:29;12.10;;;9.10;;
20855;SDS011;63058;49.424;8.420;2024-01-07T11:40:56;10.80;;;8.10;;
20855;SDS011;63058;49.424;8.420;2024-01-07T11:43:22;10.55;;;8.45;;
20855;SDS011;63058;49.424;8.420;2024-01-07T11:45:50;12.98;;;7.95;;
20855;SDS011;63058;49.424;8.420;2024-01-07T11:48:17;10.35;;;7.75;;
20855;SDS011;63058;49.424;8.420;2024-01-07T11:50:43;9.07;;;7.15;;
20855;SDS011;63058;49.424;8.420;2024-01-07T11:53:11;10.32;;;8.10;;
20855;SDS011;63058;49.424;8.420;2024-01-07T11:55:36;8.52;;;7.05;;
20855;SDS011;63058;49.424;8.420;2024-01-07T11:58:02;10.13;;;7.85;;
20855;SDS011;63058;49.424;8.420;2024-01-07T12:00:32;10.05;;;7.82;;
20855;SDS011;63058;49.424;8.420;2024-01-07T12:03:02;8.82;;;7.47;;
20855;SDS011;63058;49.424;8.420;2024-01-07T12:05:28;13.43;;;8.50;;
20855;SDS011;63058;49.424;8.420;2024-01-07T12:07:54;11.30;;;7.35;;
20855;SDS011;63058;49.424;8.420;2024-01-07T12:10:21;8.90;;;7.50;;
20855;SDS011;63058;49.424;8.420;2024-01-07T12:12:48;10.07;;;8.38;;
20855;SDS011;63058;49.424;8.420;2024-01-07T12:15:16;9.25;;;7.32;;
20855;SDS011;63058;49.424;8.420;2024-01-07T12:17:41;8.55;;;7.05;;
20855;SDS011;63058;49.424;8.420;2024-01-07T12:20:07;8.80;;;6.50;;
20855;SDS011;63058;49.424;8.420;2024-01-07T12:22:39;10.10;;;7.35;;
20855;SDS011;63058;49.424;8.420;2024-01-07T12:25:05;9.18;;;7.32;;
20855;SDS011;63058;49.424;8.420;2024-01-07T12:27:33;9.18;;;7.60;;
20855;SDS011;63058;49.424;8.420;2024-01-07T12:29:59;10.48;;;8.05;;
20855;SDS011;63058;49.424;8.420;2024-01-07T12:32:29;10.73;;;8.27;;
20855;SDS011;63058;49.424;8.420;2024-01-07T12:34:58;8.95;;;6.97;;
20855;SDS011;63058;49.424;8.420;2024-01-07T12:37:27;10.35;;;7.55;;
20855;SDS011;63058;49.424;8.420;2024-01-07T12:39:54;10.43;;;8.00;;
20855;SDS011;63058;49.424;8.420;2024-01-07T12:42:20;9.77;;;7.55;;
20855;SDS011;63058;49.424;8.420;2024-01-07T12:44:49;10.15;;;7.90;;
20855;SDS011;63058;49.424;8.420;2024-01-07T12:47:15;10.57;;;8.10;;
20855;SDS011;63058;49.424;8.420;2024-01-07T12:49:41;10.50;;;8.13;;
20855;SDS011;63058;49.424;8.420;2024-01-07T12:52:07;10.52;;;7.68;;
20855;SDS011;63058;49.424;8.420;2024-01-07T12:54:34;13.43;;;9.23;;
20855;SDS011;63058;49.424;8.420;2024-01-07T12:56:59;9.90;;;8.37;;
20855;SDS011;63058;49.424;8.420;2024-01-07T12:59:25;9.68;;;7.60;;
20855;SDS011;63058;49.424;8.420;2024-01-07T13:01:51;9.52;;;8.18;;
20855;SDS011;63058;49.424;8.420;2024-01-07T13:04:17;12.45;;;9.05;;
20855;SDS011;63058;49.424;8.420;2024-01-07T13:06:42;10.00;;;7.55;;
20855;SDS011;63058;49.424;8.420;2024-01-07T13:09:08;10.82;;;7.75;;
20855;SDS011;63058;49.424;8.420;2024-01-07T13:11:34;11.75;;;9.13;;
20855;SDS011;63058;49.424;8.420;2024-01-07T13:14:00;11.75;;;9.13;;
20855;SDS011;63058;49.424;8.420;2024-01-07T13:16:26;12.32;;;9.10;;
20855;SDS011;63058;49.424;8.420;2024-01-07T13:18:53;10.70;;;8.15;;
20855;SDS011;63058;49.424;8.420;2024-01-07T13:21:21;12.20;;;9.15;;
20855;SDS011;63058;49.424;8.420;2024-01-07T13:23:47;12.60;;;9.60;;
20855;SDS011;63058;49.424;8.420;2024-01-07T13:26:16;11.00;;;8.53;;
20855;SDS011;63058;49.424;8.420;2024-01-07T13:28:41;11.27;;;8.15;;
20855;SDS011;63058;49.424;8.420;2024-01-07T13:31:10;14.40;;;10.15;;
20855;SDS011;63058;49.424;8.420;2024-01-07T13:33:40;12.57;;;9.23;;
20855;SDS011;63058;49.424;8.420;2024-01-07T13:36:06;10.95;;;8.73;;
20855;SDS011;63058;49.424;8.420;2024-01-07T13:38:35;10.67;;;8.30;;
20855;SDS011;63058;49.424;8.420;2024-01-07T13:41:01;11.18;;;7.57;;
20855;SDS011;63058;49.424;8.420;2024-01-07T13:43:26;12.13;;;8.07;;
20855;SDS011;63058;49.424;8.420;2024-01-07T13:45:54;10.63;;;7.90;;
20855;SDS011;63058;49.424;8.420;2024-01-07T13:48:20;9.55;;;7.13;;
20855;SDS011;63058;49.424;8.420;2024-01-07T13:50:45;12.27;;;8.70;;
20855;SDS011;63058;49.424;8.420;2024-01-07T13:53:12;10.30;;;7.32;;
20855;SDS011;63058;49.424;8.420;2024-01-07T13:55:39;9.70;;;7.53;;
20855;SDS011;63058;49.424;8.420;2024-01-07T13:58:05;12.30;;;8.63;;
20855;SDS011;63058;49.424;8.420;2024-01-07T14:00:30;12.53;;;8.40;;
20855;SDS011;63058;49.424;8.420;2024-01-07T14:02:56;11.43;;;8.35;;
20855;SDS011;63058;49.424;8.420;2024-01-07T14:05:22;11.43;;;7.70;;
20855;SDS011;63058;49.424;8.420;2024-01-07T14:07:48;16.38;;;10.60;;
20855;SDS011;63058;49.424;8.420;2024-01-07T14:10:13;11.85;;;8.48;;
20855;SDS011;63058;49.424;8.420;2024-01-07T14:12:39;10.17;;;7.30;;
20855;SDS011;63058;49.424;8.420;2024-01-07T14:15:05;12.20;;;8.70;;
20855;SDS011;63058;49.424;8.420;2024-01-07T14:17:33;12.43;;;8.50;;
20855;SDS011;63058;49.424;8.420;2024-01-07T14:19:58;12.10;;;8.05;;
20855;SDS011;63058;49.424;8.420;2024-01-07T14:22:24;10.97;;;7.77;;
20855;SDS011;63058;49.424;8.420;2024-01-07T14:24:49;12.15;;;8.85;;
20855;SDS011;63058;49.424;8.420;2024-01-07T14:27:15;12.30;;;9.50;;
20855;SDS011;63058;49.424;8.420;2024-01-07T14:29:41;12.15;;;8.68;;
20855;SDS011;63058;49.424;8.420;2024-01-07T14:32:07;13.25;;;8.35;;
20855;SDS011;63058;49.424;8.420;2024-01-07T14:34:33;13.63;;;9.45;;
20855;SDS011;63058;49.424;8.420;2024-01-07T14:37:02;12.70;;;8.85;;